createdAt,value
2019-04-03T00:00:05.485Z,1000.02
2019-04-03T00:01:04.984Z,999.99
2019-04-03T00:02:04.903Z,999.99
2019-04-03T00:03:04.897Z,999.99
2019-04-03T00:04:04.948Z,999.99
2019-04-03T00:05:05.165Z,1000.05
2019-04-03T00:06:03.723Z,1000.05
2019-04-03T00:07:06.058Z,1000.05
2019-04-03T00:08:01.841Z,1000.05
2019-04-03T00:09:01.977Z,1000.12
2019-04-03T00:10:02.296Z,1000.12
2019-04-03T00:11:02.591Z,1000.12
2019-04-03T00:12:01.670Z,1000.12
2019-04-03T00:13:01.909Z,1000.15
2019-04-03T00:14:02.190Z,1000.15
2019-04-03T00:15:02.363Z,1000.15
2019-04-03T00:16:02.659Z,1000.15
2019-04-03T00:17:01.957Z,1000.09
2019-04-03T00:18:02.156Z,1000.09
2019-04-03T00:19:02.463Z,1000.09
2019-04-03T00:20:02.605Z,1000.09
2019-04-03T00:21:02.057Z,1000.08
2019-04-03T00:22:02.118Z,1000.08
2019-04-03T00:23:02.350Z,1000.08
2019-04-03T00:24:02.710Z,1000.08
2019-04-03T00:25:01.816Z,1000.02
2019-04-03T00:26:02.181Z,1000.02
2019-04-03T00:27:02.319Z,1000.02
2019-04-03T00:28:02.573Z,1000.02
2019-04-03T00:29:01.854Z,999.99
2019-04-03T00:30:01.986Z,999.99
2019-04-03T00:31:02.264Z,999.99
2019-04-03T00:32:02.531Z,999.99
2019-04-03T00:33:01.675Z,999.87
2019-04-03T00:34:01.957Z,999.87
2019-04-03T00:35:02.122Z,999.87
2019-04-03T00:36:02.398Z,999.87
2019-04-03T00:37:02.586Z,999.95
2019-04-03T00:38:01.715Z,999.95
2019-04-03T00:39:01.930Z,999.95
2019-04-03T00:40:02.139Z,999.95
2019-04-03T00:41:02.473Z,999.92
2019-04-03T00:42:02.617Z,999.92
2019-04-03T00:43:01.748Z,999.92
2019-04-03T00:44:01.956Z,999.92
2019-04-03T00:45:02.182Z,999.87
2019-04-03T00:46:02.478Z,999.87
2019-04-03T00:47:02.742Z,999.87
2019-04-03T00:48:02.109Z,999.97
2019-04-03T00:49:02.107Z,999.97
2019-04-03T00:50:02.519Z,999.97
2019-04-03T00:51:01.753Z,999.97
2019-04-03T00:52:01.899Z,999.86
2019-04-03T00:53:02.182Z,999.86
2019-04-03T00:54:02.208Z,999.86
2019-04-03T00:55:02.523Z,999.86
2019-04-03T00:56:01.883Z,999.86
2019-04-03T00:57:01.988Z,999.86
2019-04-03T00:58:02.210Z,999.86
2019-04-03T00:59:02.409Z,999.86
2019-04-03T01:00:04.503Z,999.92
2019-04-03T01:01:02.561Z,999.92
2019-04-03T01:02:01.661Z,999.92
2019-04-03T01:03:01.864Z,999.92
2019-04-03T01:04:02.259Z,1000
2019-04-03T01:05:02.417Z,1000
2019-04-03T01:06:02.745Z,1000
2019-04-03T01:07:01.787Z,1000
2019-04-03T01:08:01.984Z,999.94
2019-04-03T01:09:02.227Z,999.94
2019-04-03T01:10:02.572Z,999.94
2019-04-03T01:11:01.652Z,999.94
2019-04-03T01:12:01.900Z,999.81
2019-04-03T01:13:02.584Z,999.81
2019-04-03T01:14:02.603Z,999.81
2019-04-03T01:15:02.813Z,999.81
2019-04-03T01:16:03.261Z,999.94
2019-04-03T01:17:04.800Z,999.94
2019-04-03T01:18:05.339Z,999.94
2019-04-03T01:19:06.396Z,999.94
2019-04-03T01:20:02.047Z,999.92
2019-04-03T01:21:02.204Z,999.92
2019-04-03T01:22:02.196Z,999.92
2019-04-03T01:23:02.423Z,999.92
2019-04-03T01:24:01.681Z,999.99
2019-04-03T01:25:01.960Z,999.99
2019-04-03T01:26:02.107Z,999.99
2019-04-03T01:27:02.518Z,999.99
2019-04-03T01:28:02.593Z,999.84
2019-04-03T01:29:01.975Z,999.84
2019-04-03T01:30:02.156Z,999.84
2019-04-03T01:31:02.433Z,999.84
2019-04-03T01:32:02.561Z,999.88
2019-04-03T01:33:01.838Z,999.88
2019-04-03T01:34:02.119Z,999.88
2019-04-03T01:35:02.275Z,999.88
2019-04-03T01:36:02.699Z,999.82
2019-04-03T01:37:01.748Z,999.82
2019-04-03T01:38:02.067Z,999.82
2019-04-03T01:39:02.208Z,999.82
2019-04-03T01:40:02.524Z,999.84
2019-04-03T01:41:01.793Z,999.84
2019-04-03T01:42:02.009Z,999.84
2019-04-03T01:43:02.084Z,999.84
2019-04-03T01:44:02.376Z,999.67
2019-04-03T01:45:02.635Z,999.67
2019-04-03T01:46:01.772Z,999.67
2019-04-03T01:47:02.067Z,999.67
2019-04-03T01:48:02.231Z,999.84
2019-04-03T01:49:02.598Z,999.84
2019-04-03T01:50:01.879Z,999.84
2019-04-03T01:51:02.100Z,999.84
2019-04-03T01:52:02.171Z,999.72
2019-04-03T01:53:03.060Z,999.72
2019-04-03T01:54:03.736Z,999.72
2019-04-03T01:55:04.445Z,999.72
2019-04-03T01:56:05.334Z,999.72
2019-04-03T01:57:02.355Z,999.72
2019-04-03T01:58:02.442Z,999.72
2019-04-03T01:59:01.693Z,999.72
2019-04-03T02:00:08.258Z,999.66
2019-04-03T02:01:02.379Z,999.66
2019-04-03T02:02:02.522Z,999.66
2019-04-03T02:03:02.702Z,999.66
2019-04-03T02:04:02.054Z,999.71
2019-04-03T02:05:02.337Z,999.71
2019-04-03T02:06:02.655Z,999.71
2019-04-03T02:07:01.721Z,999.71
2019-04-03T02:08:01.987Z,999.7
2019-04-03T02:09:02.412Z,999.7
2019-04-03T02:10:02.532Z,999.7
2019-04-03T02:11:01.863Z,999.7
2019-04-03T02:12:02.095Z,999.68
2019-04-03T02:13:02.235Z,999.68
2019-04-03T02:14:02.635Z,999.68
2019-04-03T02:15:02.625Z,999.68
2019-04-03T02:16:01.808Z,999.7
2019-04-03T02:17:02.036Z,999.7
2019-04-03T02:18:02.293Z,999.7
2019-04-03T02:19:02.475Z,999.7
2019-04-03T02:20:02.254Z,999.81
2019-04-03T02:21:02.456Z,999.81
2019-04-03T02:22:01.648Z,999.81
2019-04-03T02:23:02.049Z,999.81
2019-04-03T02:24:02.372Z,999.7
2019-04-03T02:25:02.494Z,999.7
2019-04-03T02:26:03.446Z,999.7
2019-04-03T02:27:03.741Z,999.7
2019-04-03T02:28:04.646Z,999.63
2019-04-03T02:29:08.115Z,999.63
2019-04-03T02:30:02.556Z,999.63
2019-04-03T02:31:02.572Z,999.74
2019-04-03T02:32:02.098Z,999.74
2019-04-03T02:33:02.150Z,999.74
2019-04-03T02:34:03.470Z,999.74
2019-04-03T02:35:06.792Z,999.67
2019-04-03T02:36:01.637Z,999.67
2019-04-03T02:37:01.879Z,999.67
2019-04-03T02:38:02.105Z,999.67
2019-04-03T02:39:02.385Z,999.54
2019-04-03T02:40:02.691Z,999.54
2019-04-03T02:41:05.521Z,999.54
2019-04-03T02:42:02.490Z,999.54
2019-04-03T02:43:02.740Z,999.62
2019-04-03T02:44:02.946Z,999.62
2019-04-03T02:45:02.195Z,999.62
2019-04-03T02:46:02.331Z,999.62
2019-04-03T02:47:02.333Z,999.56
2019-04-03T02:48:06.716Z,999.56
2019-04-03T02:49:01.767Z,999.56
2019-04-03T02:50:02.051Z,999.56
2019-04-03T02:51:02.328Z,999.67
2019-04-03T02:52:02.657Z,999.67
2019-04-03T02:53:01.671Z,999.67
2019-04-03T02:54:03.472Z,999.67
2019-04-03T02:55:02.167Z,999.53
2019-04-03T02:56:02.399Z,999.53
2019-04-03T02:57:02.975Z,999.53
2019-04-03T02:58:01.854Z,999.53
2019-04-03T02:59:02.498Z,999.54
2019-04-03T03:00:02.304Z,999.54
2019-04-03T03:01:07.303Z,999.54
2019-04-03T03:02:01.699Z,999.54
2019-04-03T03:03:01.840Z,999.49
2019-04-03T03:04:02.305Z,999.49
2019-04-03T03:05:02.688Z,999.49
2019-04-03T03:06:02.426Z,999.49
2019-04-03T03:07:05.635Z,999.55
2019-04-03T03:08:01.908Z,999.55
2019-04-03T03:09:02.476Z,999.55
2019-04-03T03:10:01.748Z,999.55
2019-04-03T03:11:01.915Z,999.66
2019-04-03T03:12:02.301Z,999.66
2019-04-03T03:13:03.123Z,999.66
2019-04-03T03:14:06.193Z,999.66
2019-04-03T03:15:01.892Z,999.56
2019-04-03T03:16:02.389Z,999.56
2019-04-03T03:17:02.467Z,999.56
2019-04-03T03:18:02.943Z,999.56
2019-04-03T03:19:02.187Z,999.55
2019-04-03T03:20:07.732Z,999.55
2019-04-03T03:21:02.213Z,999.55
2019-04-03T03:22:02.648Z,999.55
2019-04-03T03:23:01.638Z,999.51
2019-04-03T03:24:02.041Z,999.51
2019-04-03T03:25:02.720Z,999.51
2019-04-03T03:26:05.518Z,999.51
2019-04-03T03:27:03.053Z,999.56
2019-04-03T03:28:02.148Z,999.56
2019-04-03T03:29:23.826Z,999.56
2019-04-03T03:30:02.641Z,999.56
2019-04-03T03:31:07.888Z,999.47
2019-04-03T03:32:21.783Z,999.47
2019-04-03T03:33:37.353Z,999.47
2019-04-03T03:34:06.703Z,999.47
2019-04-03T03:35:22.878Z,999.54
2019-04-03T03:36:02.596Z,999.54
2019-04-03T03:37:03.987Z,999.54
2019-04-03T03:38:04.673Z,999.54
2019-04-03T03:39:02.419Z,999.47
2019-04-03T03:40:02.251Z,999.47
2019-04-03T03:41:02.110Z,999.47
2019-04-03T03:42:02.215Z,999.47
2019-04-03T03:43:06.888Z,999.38
2019-04-03T03:44:01.631Z,999.38
2019-04-03T03:45:02.109Z,999.38
2019-04-03T03:46:02.368Z,999.38
2019-04-03T03:47:03.343Z,999.46
2019-04-03T03:48:02.538Z,999.46
2019-04-03T03:49:01.758Z,999.46
2019-04-03T03:50:02.082Z,999.46
2019-04-03T03:51:02.200Z,999.38
2019-04-03T03:52:06.253Z,999.38
2019-04-03T03:53:02.089Z,999.38
2019-04-03T03:54:02.350Z,999.38
2019-04-03T03:55:02.419Z,999.39
2019-04-03T03:56:02.419Z,999.39
2019-04-03T03:57:07.437Z,999.39
2019-04-03T03:58:02.183Z,999.39
2019-04-03T03:59:02.372Z,999.48
2019-04-03T04:00:04.163Z,999.48
2019-04-03T04:01:02.057Z,999.48
2019-04-03T04:02:06.561Z,999.48
2019-04-03T04:03:02.356Z,999.35
2019-04-03T04:04:02.509Z,999.35
2019-04-03T04:05:02.694Z,999.35
2019-04-03T04:06:02.182Z,999.35
2019-04-03T04:07:05.156Z,999.42
2019-04-03T04:08:02.512Z,999.42
2019-04-03T04:09:01.755Z,999.42
2019-04-03T04:10:02.678Z,999.42
2019-04-03T04:11:02.322Z,999.42
2019-04-03T04:12:07.686Z,999.42
2019-04-03T04:13:01.820Z,999.42
2019-04-03T04:14:02.060Z,999.42
2019-04-03T04:15:02.222Z,999.49
2019-04-03T04:16:05.453Z,999.49
2019-04-03T04:17:01.945Z,999.49
2019-04-03T04:18:01.830Z,999.4
2019-04-03T04:19:02.052Z,999.4
2019-04-03T04:20:06.327Z,999.4
2019-04-03T04:21:02.406Z,999.4
2019-04-03T04:22:01.864Z,999.45
2019-04-03T04:23:02.114Z,999.45
2019-04-03T04:24:02.240Z,999.45
2019-04-03T04:25:02.462Z,999.45
2019-04-03T04:26:02.570Z,999.5
2019-04-03T04:27:03.794Z,999.5
2019-04-03T04:28:02.374Z,999.5
2019-04-03T04:29:02.397Z,999.5
2019-04-03T04:30:01.826Z,999.37
2019-04-03T04:31:02.033Z,999.37
2019-04-03T04:32:02.155Z,999.37
2019-04-03T04:33:02.312Z,999.37
2019-04-03T04:34:02.538Z,999.47
2019-04-03T04:35:01.730Z,999.47
2019-04-03T04:36:02.047Z,999.47
2019-04-03T04:37:03.356Z,999.47
2019-04-03T04:38:02.396Z,999.53
2019-04-03T04:39:02.596Z,999.53
2019-04-03T04:40:01.986Z,999.53
2019-04-03T04:41:02.706Z,999.53
2019-04-03T04:42:04.926Z,999.58
2019-04-03T04:43:07.473Z,999.58
2019-04-03T04:44:01.763Z,999.58
2019-04-03T04:45:01.905Z,999.58
2019-04-03T04:46:02.266Z,999.45
2019-04-03T04:47:02.557Z,999.45
2019-04-03T04:48:02.712Z,999.45
2019-04-03T04:49:01.978Z,999.45
2019-04-03T04:50:02.438Z,999.51
2019-04-03T04:51:02.244Z,999.51
2019-04-03T04:52:02.710Z,999.51
2019-04-03T04:53:01.723Z,999.51
2019-04-03T04:54:01.989Z,999.42
2019-04-03T04:55:03.179Z,999.42
2019-04-03T04:56:02.418Z,999.42
2019-04-03T04:57:01.733Z,999.42
2019-04-03T04:58:05.322Z,999.46
2019-04-03T04:59:02.307Z,999.46
2019-04-03T05:00:04.390Z,999.46
2019-04-03T05:01:02.384Z,999.46
2019-04-03T05:02:02.543Z,999.52
2019-04-03T05:03:02.476Z,999.52
2019-04-03T05:04:01.936Z,999.52
2019-04-03T05:05:02.151Z,999.52
2019-04-03T05:06:02.328Z,999.44
2019-04-03T05:07:02.802Z,999.44
2019-04-03T05:08:02.913Z,999.44
2019-04-03T05:09:04.516Z,999.44
2019-04-03T05:10:03.959Z,999.45
2019-04-03T05:11:02.610Z,999.45
2019-04-03T05:12:01.728Z,999.45
2019-04-03T05:13:02.007Z,999.45
2019-04-03T05:14:02.339Z,999.5
2019-04-03T05:15:02.465Z,999.5
2019-04-03T05:16:02.693Z,999.5
2019-04-03T05:17:01.775Z,999.5
2019-04-03T05:18:02.276Z,999.52
2019-04-03T05:19:17.960Z,999.52
2019-04-03T05:20:02.479Z,999.52
2019-04-03T05:21:01.903Z,999.52
2019-04-03T05:22:01.925Z,999.56
2019-04-03T05:23:02.218Z,999.56
2019-04-03T05:24:13.798Z,999.56
2019-04-03T05:25:02.856Z,999.56
2019-04-03T05:26:02.617Z,999.53
2019-04-03T05:27:03.872Z,999.53
2019-04-03T05:28:04.853Z,999.53
2019-04-03T05:29:05.032Z,999.53
2019-04-03T05:30:01.819Z,999.68
2019-04-03T05:31:02.222Z,999.68
2019-04-03T05:32:02.349Z,999.68
2019-04-03T05:33:02.385Z,999.68
2019-04-03T05:34:02.608Z,999.59
2019-04-03T05:35:01.836Z,999.59
2019-04-03T05:36:02.337Z,999.59
2019-04-03T05:37:02.312Z,999.59
2019-04-03T05:38:02.538Z,999.7
2019-04-03T05:39:03.766Z,999.7
2019-04-03T05:40:02.363Z,999.7
2019-04-03T05:41:02.327Z,999.7
2019-04-03T05:42:02.528Z,999.8
2019-04-03T05:43:02.011Z,999.8
2019-04-03T05:44:03.318Z,999.8
2019-04-03T05:45:04.896Z,999.8
2019-04-03T05:46:03.717Z,999.71
2019-04-03T05:47:01.922Z,999.71
2019-04-03T05:48:01.850Z,999.71
2019-04-03T05:49:02.275Z,999.71
2019-04-03T05:50:02.566Z,999.84
2019-04-03T05:51:02.679Z,999.84
2019-04-03T05:52:04.722Z,999.84
2019-04-03T05:53:01.945Z,999.84
2019-04-03T05:54:02.285Z,999.73
2019-04-03T05:55:02.607Z,999.73
2019-04-03T05:56:02.612Z,999.73
2019-04-03T05:57:02.202Z,999.73
2019-04-03T05:58:02.171Z,999.76
2019-04-03T05:59:03.396Z,999.76
2019-04-03T06:00:07.546Z,999.76
2019-04-03T06:01:07.145Z,999.76
2019-04-03T06:02:20.044Z,999.76
2019-04-03T06:03:01.699Z,999.76
2019-04-03T06:04:01.899Z,999.76
2019-04-03T06:05:02.554Z,999.71
2019-04-03T06:06:02.289Z,999.71
2019-04-03T06:07:02.595Z,999.71
2019-04-03T06:08:01.813Z,999.71
2019-04-03T06:09:01.974Z,999.69
2019-04-03T06:10:02.274Z,999.69
2019-04-03T06:11:09.112Z,999.69
2019-04-03T06:12:01.827Z,999.69
2019-04-03T06:13:05.522Z,999.73
2019-04-03T06:14:02.099Z,999.73
2019-04-03T06:15:02.395Z,999.73
2019-04-03T06:16:02.741Z,999.73
2019-04-03T06:17:01.931Z,999.88
2019-04-03T06:18:02.163Z,999.88
2019-04-03T06:19:02.407Z,999.88
2019-04-03T06:20:02.561Z,999.88
2019-04-03T06:21:01.787Z,999.85
2019-04-03T06:22:02.009Z,999.85
2019-04-03T06:23:02.371Z,999.85
2019-04-03T06:24:02.422Z,999.85
2019-04-03T06:25:02.609Z,999.81
2019-04-03T06:26:03.292Z,999.81
2019-04-03T06:27:02.729Z,999.81
2019-04-03T06:28:01.633Z,999.81
2019-04-03T06:29:02.131Z,999.85
2019-04-03T06:30:02.351Z,999.85
2019-04-03T06:31:02.577Z,999.85
2019-04-03T06:32:06.439Z,999.85
2019-04-03T06:33:02.706Z,999.78
2019-04-03T06:34:01.927Z,999.78
2019-04-03T06:35:02.256Z,999.78
2019-04-03T06:36:02.822Z,999.78
2019-04-03T06:37:01.747Z,999.76
2019-04-03T06:38:02.013Z,999.76
2019-04-03T06:39:02.405Z,999.76
2019-04-03T06:40:04.318Z,999.76
2019-04-03T06:41:01.846Z,999.83
2019-04-03T06:42:02.267Z,999.83
2019-04-03T06:43:02.292Z,999.83
2019-04-03T06:44:02.331Z,999.83
2019-04-03T06:45:02.821Z,999.9
2019-04-03T06:46:01.881Z,999.9
2019-04-03T06:47:02.298Z,999.9
2019-04-03T06:48:05.610Z,999.9
2019-04-03T06:49:02.651Z,999.8
2019-04-03T06:50:01.751Z,999.8
2019-04-03T06:51:01.843Z,999.8
2019-04-03T06:52:02.234Z,999.8
2019-04-03T06:53:02.350Z,999.74
2019-04-03T06:54:02.710Z,999.74
2019-04-03T06:55:04.278Z,999.74
2019-04-03T06:56:02.101Z,999.74
2019-04-03T06:57:02.443Z,999.9
2019-04-03T06:58:02.622Z,999.9
2019-04-03T06:59:01.870Z,999.9
2019-04-03T07:00:04.029Z,999.9
2019-04-03T07:01:02.206Z,999.93
2019-04-03T07:02:02.148Z,999.93
2019-04-03T07:03:04.585Z,999.93
2019-04-03T07:04:02.788Z,999.93
2019-04-03T07:05:03.415Z,999.79
2019-04-03T07:06:02.241Z,999.79
2019-04-03T07:07:02.486Z,999.79
2019-04-03T07:08:06.381Z,999.79
2019-04-03T07:09:05.673Z,999.83
2019-04-03T07:10:04.764Z,999.83
2019-04-03T07:11:01.895Z,999.83
2019-04-03T07:12:02.096Z,999.83
2019-04-03T07:13:02.401Z,999.82
2019-04-03T07:14:02.878Z,999.82
2019-04-03T07:15:02.191Z,999.82
2019-04-03T07:16:02.033Z,999.82
2019-04-03T07:17:06.447Z,999.75
2019-04-03T07:18:06.834Z,999.75
2019-04-03T07:19:01.747Z,999.75
2019-04-03T07:20:18.627Z,999.75
2019-04-03T07:21:02.200Z,999.6
2019-04-03T07:22:02.420Z,999.6
2019-04-03T07:23:02.836Z,999.6
2019-04-03T07:24:01.827Z,999.6
2019-04-03T07:25:04.130Z,999.72
2019-04-03T07:26:05.578Z,999.72
2019-04-03T07:27:02.999Z,999.72
2019-04-03T07:28:02.039Z,999.72
2019-04-03T07:29:01.988Z,999.85
2019-04-03T07:30:02.491Z,999.85
2019-04-03T07:31:02.473Z,999.85
2019-04-03T07:32:02.679Z,999.85
2019-04-03T07:33:01.822Z,999.88
2019-04-03T07:34:04.027Z,999.88
2019-04-03T07:35:10.144Z,999.88
2019-04-03T07:36:02.820Z,999.88
2019-04-03T07:37:01.995Z,999.87
2019-04-03T07:38:01.953Z,999.87
2019-04-03T07:39:02.221Z,999.87
2019-04-03T07:40:02.579Z,999.87
2019-04-03T07:41:01.884Z,999.92
2019-04-03T07:42:02.695Z,999.92
2019-04-03T07:43:02.565Z,999.92
2019-04-03T07:44:01.775Z,1000
2019-04-03T07:45:03.306Z,1000
2019-04-03T07:46:04.207Z,1000
2019-04-03T07:47:04.962Z,1000
2019-04-03T07:48:06.149Z,999.98
2019-04-03T07:49:02.354Z,999.98
2019-04-03T07:50:02.890Z,999.98
2019-04-03T07:51:01.958Z,999.98
2019-04-03T07:52:01.981Z,999.95
2019-04-03T07:53:02.161Z,999.95
2019-04-03T07:54:05.118Z,999.95
2019-04-03T07:55:02.672Z,999.95
2019-04-03T07:56:01.979Z,1000
2019-04-03T07:57:02.118Z,1000
2019-04-03T07:58:02.345Z,1000
2019-04-03T07:59:04.305Z,1000
2019-04-03T08:00:07.796Z,1000.08
2019-04-03T08:01:01.621Z,1000.08
2019-04-03T08:02:01.777Z,1000.08
2019-04-03T08:03:02.079Z,1000.08
2019-04-03T08:04:02.249Z,1000.13
2019-04-03T08:05:02.772Z,1000.13
2019-04-03T08:06:04.591Z,1000.13
2019-04-03T08:07:01.845Z,1000.13
2019-04-03T08:08:03.012Z,1000.21
2019-04-03T08:09:10.353Z,1000.21
2019-04-03T08:10:02.556Z,1000.21
2019-04-03T08:11:03.046Z,1000.21
2019-04-03T08:12:04.811Z,1000.2
2019-04-03T08:13:02.333Z,1000.2
2019-04-03T08:14:02.834Z,1000.2
2019-04-03T08:15:01.785Z,1000.2
2019-04-03T08:16:01.984Z,1000.18
2019-04-03T08:17:02.339Z,1000.18
2019-04-03T08:18:02.331Z,1000.18
2019-04-03T08:19:03.114Z,1000.18
2019-04-03T08:20:01.839Z,1000.15
2019-04-03T08:21:02.807Z,1000.15
2019-04-03T08:22:02.773Z,1000.15
2019-04-03T08:23:06.315Z,1000.15
2019-04-03T08:24:01.791Z,1000.06
2019-04-03T08:25:02.441Z,1000.06
2019-04-03T08:26:02.247Z,1000.06
2019-04-03T08:27:02.557Z,1000.06
2019-04-03T08:28:02.258Z,1000.07
2019-04-03T08:29:02.798Z,1000.07
2019-04-03T08:30:02.443Z,1000.07
2019-04-03T08:31:02.348Z,1000.07
2019-04-03T08:32:02.608Z,1000.11
2019-04-03T08:33:02.141Z,1000.11
2019-04-03T08:34:18.320Z,1000.11
2019-04-03T08:35:04.864Z,1000.11
2019-04-03T08:36:02.441Z,1000.17
2019-04-03T08:37:02.587Z,1000.17
2019-04-03T08:38:01.684Z,1000.17
2019-04-03T08:39:02.224Z,1000.17
2019-04-03T08:40:02.462Z,1000.28
2019-04-03T08:41:04.611Z,1000.28
2019-04-03T08:42:02.614Z,1000.28
2019-04-03T08:43:01.986Z,1000.28
2019-04-03T08:44:08.470Z,1000.25
2019-04-03T08:45:05.729Z,1000.25
2019-04-03T08:46:02.412Z,1000.25
2019-04-03T08:47:01.642Z,1000.25
2019-04-03T08:48:02.369Z,1000.27
2019-04-03T08:49:02.140Z,1000.27
2019-04-03T08:50:02.835Z,1000.27
2019-04-03T08:51:04.076Z,1000.27
2019-04-03T08:52:01.851Z,1000.25
2019-04-03T08:53:02.050Z,1000.25
2019-04-03T08:54:02.222Z,1000.25
2019-04-03T08:55:02.694Z,1000.25
2019-04-03T08:56:01.768Z,1000.2
2019-04-03T08:57:02.310Z,1000.2
2019-04-03T08:58:02.054Z,1000.2
2019-04-03T08:59:02.564Z,1000.2
2019-04-03T09:00:05.222Z,1000.23
2019-04-03T09:01:05.331Z,1000.23
2019-04-03T09:02:02.144Z,1000.23
2019-04-03T09:03:04.906Z,1000.23
2019-04-03T09:04:02.630Z,1000.35
2019-04-03T09:05:01.820Z,1000.35
2019-04-03T09:06:02.275Z,1000.35
2019-04-03T09:07:02.503Z,1000.35
2019-04-03T09:08:01.993Z,1000.29
2019-04-03T09:09:02.258Z,1000.29
2019-04-03T09:10:02.383Z,1000.29
2019-04-03T09:11:05.473Z,1000.29
2019-04-03T09:12:02.638Z,1000.25
2019-04-03T09:13:15.434Z,1000.25
2019-04-03T09:14:02.034Z,1000.25
2019-04-03T09:15:02.373Z,1000.25
2019-04-03T09:16:02.335Z,1000.25
2019-04-03T09:17:04.201Z,1000.25
2019-04-03T09:18:02.002Z,1000.25
2019-04-03T09:19:02.415Z,1000.25
2019-04-03T09:20:02.437Z,1000.25
2019-04-03T09:21:02.828Z,1000.25
2019-04-03T09:22:01.730Z,1000.25
2019-04-03T09:23:02.323Z,1000.32
2019-04-03T09:24:02.629Z,1000.32
2019-04-03T09:25:02.541Z,1000.32
2019-04-03T09:26:04.093Z,1000.32
2019-04-03T09:27:02.187Z,1000.23
2019-04-03T09:28:02.210Z,1000.23
2019-04-03T09:29:02.575Z,1000.23
2019-04-03T09:30:02.100Z,1000.23
2019-04-03T09:31:01.987Z,1000.2
2019-04-03T09:32:02.428Z,1000.2
2019-04-03T09:33:02.685Z,1000.2
2019-04-03T09:34:02.582Z,1000.2
2019-04-03T09:35:02.719Z,1000.14
2019-04-03T09:36:05.211Z,1000.14
2019-04-03T09:37:05.818Z,1000.14
2019-04-03T09:38:02.469Z,1000.14
2019-04-03T09:39:01.790Z,1000.11
2019-04-03T09:40:02.017Z,1000.11
2019-04-03T09:41:02.188Z,1000.11
2019-04-03T09:42:02.282Z,1000.11
2019-04-03T09:43:02.821Z,1000.04
2019-04-03T09:44:01.670Z,1000.04
2019-04-03T09:45:02.199Z,1000.04
2019-04-03T09:46:02.479Z,1000.04
2019-04-03T09:47:04.072Z,1000.03
2019-04-03T09:48:06.118Z,1000.03
2019-04-03T09:49:01.678Z,1000.03
2019-04-03T09:50:02.392Z,1000.03
2019-04-03T09:51:02.080Z,999.98
2019-04-03T09:52:02.524Z,999.98
2019-04-03T09:53:03.483Z,999.98
2019-04-03T09:54:01.727Z,999.98
2019-04-03T09:55:02.240Z,1000.02
2019-04-03T09:56:02.395Z,1000.02
2019-04-03T09:57:06.019Z,1000.02
2019-04-03T09:58:04.948Z,1000.02
2019-04-03T09:59:01.756Z,999.97
2019-04-03T10:00:04.159Z,999.97
2019-04-03T10:01:01.944Z,999.97
2019-04-03T10:02:02.270Z,999.97
2019-04-03T10:03:05.260Z,999.96
2019-04-03T10:04:02.629Z,999.96
2019-04-03T10:05:02.013Z,999.96
2019-04-03T10:06:02.043Z,999.96
2019-04-03T10:07:03.032Z,999.99
2019-04-03T10:08:02.834Z,999.99
2019-04-03T10:09:02.666Z,999.99
2019-04-03T10:10:02.151Z,999.99
2019-04-03T10:11:02.680Z,999.93
2019-04-03T10:12:02.619Z,999.93
2019-04-03T10:13:02.078Z,999.93
2019-04-03T10:14:01.890Z,999.93
2019-04-03T10:15:02.218Z,999.83
2019-04-03T10:16:04.913Z,999.83
2019-04-03T10:17:07.101Z,999.83
2019-04-03T10:18:02.071Z,999.83
2019-04-03T10:19:02.054Z,999.83
2019-04-03T10:20:02.285Z,999.83
2019-04-03T10:21:02.416Z,999.83
2019-04-03T10:22:02.474Z,999.83
2019-04-03T10:23:01.625Z,999.74
2019-04-03T10:24:02.140Z,999.74
2019-04-03T10:25:06.381Z,999.74
2019-04-03T10:26:02.517Z,999.74
2019-04-03T10:27:02.426Z,999.95
2019-04-03T10:28:01.881Z,999.95
2019-04-03T10:29:01.881Z,999.95
2019-04-03T10:30:02.359Z,999.95
2019-04-03T10:31:02.827Z,999.99
2019-04-03T10:32:02.817Z,999.99
2019-04-03T10:33:02.258Z,999.99
2019-04-03T10:34:04.702Z,999.99
2019-04-03T10:35:02.665Z,1000.12
2019-04-03T10:36:02.517Z,1000.12
2019-04-03T10:37:01.877Z,1000.12
2019-04-03T10:38:02.224Z,1000.12
2019-04-03T10:39:02.575Z,1000.06
2019-04-03T10:40:02.546Z,1000.06
2019-04-03T10:41:02.948Z,1000.06
2019-04-03T10:42:01.980Z,1000.06
2019-04-03T10:43:06.655Z,999.93
2019-04-03T10:44:02.153Z,999.93
2019-04-03T10:45:02.421Z,999.93
2019-04-03T10:46:02.905Z,999.93
2019-04-03T10:47:01.718Z,999.9
2019-04-03T10:48:01.905Z,999.9
2019-04-03T10:49:02.072Z,999.9
2019-04-03T10:50:05.798Z,999.9
2019-04-03T10:51:02.879Z,999.73
2019-04-03T10:52:02.079Z,999.73
2019-04-03T10:53:02.255Z,999.73
2019-04-03T10:54:02.221Z,999.73
2019-04-03T10:55:02.587Z,999.83
2019-04-03T10:56:01.868Z,999.83
2019-04-03T10:57:03.727Z,999.83
2019-04-03T10:58:06.542Z,999.83
2019-04-03T10:59:15.446Z,999.9
2019-04-03T11:00:04.846Z,999.9
2019-04-03T11:01:01.692Z,999.9
2019-04-03T11:02:02.179Z,999.89
2019-04-03T11:03:02.119Z,999.89
2019-04-03T11:04:02.191Z,999.89
2019-04-03T11:05:02.460Z,999.89
2019-04-03T11:06:01.832Z,999.83
2019-04-03T11:07:01.765Z,999.83
2019-04-03T11:08:02.525Z,999.83
2019-04-03T11:09:02.455Z,999.83
2019-04-03T11:10:02.411Z,999.78
2019-04-03T11:11:05.281Z,999.78
2019-04-03T11:12:02.057Z,999.78
2019-04-03T11:13:04.423Z,999.78
2019-04-03T11:14:06.341Z,999.8
2019-04-03T11:15:02.900Z,999.8
2019-04-03T11:16:01.679Z,999.8
2019-04-03T11:17:01.867Z,999.8
2019-04-03T11:18:02.184Z,999.67
2019-04-03T11:19:07.463Z,999.67
2019-04-03T11:20:02.981Z,999.67
2019-04-03T11:21:01.802Z,999.67
2019-04-03T11:22:02.053Z,999.71
2019-04-03T11:23:08.465Z,999.71
2019-04-03T11:24:05.890Z,999.71
2019-04-03T11:25:02.207Z,999.71
2019-04-03T11:26:01.922Z,999.5
2019-04-03T11:27:02.498Z,999.5
2019-04-03T11:28:06.826Z,999.5
2019-04-03T11:29:03.073Z,999.5
2019-04-03T11:30:02.424Z,999.44
2019-04-03T11:31:02.479Z,999.44
2019-04-03T11:32:02.497Z,999.44
2019-04-03T11:33:02.688Z,999.44
2019-04-03T11:34:02.805Z,999.52
2019-04-03T11:35:01.936Z,999.52
2019-04-03T11:36:02.414Z,999.52
2019-04-03T11:37:02.671Z,999.52
2019-04-03T11:38:24.051Z,999.48
2019-04-03T11:39:16.106Z,999.48
2019-04-03T11:40:06.323Z,999.48
2019-04-03T11:41:18.036Z,999.48
2019-04-03T11:42:02.468Z,999.45
2019-04-03T11:43:01.638Z,999.45
2019-04-03T11:44:01.930Z,999.45
2019-04-03T11:45:05.508Z,999.45
2019-04-03T11:46:02.955Z,999.5
2019-04-03T11:47:02.581Z,999.5
2019-04-03T11:48:01.782Z,999.5
2019-04-03T11:49:02.233Z,999.5
2019-04-03T11:50:02.411Z,999.46
2019-04-03T11:51:02.556Z,999.46
2019-04-03T11:52:02.345Z,999.46
2019-04-03T11:53:07.696Z,999.46
2019-04-03T11:54:02.563Z,999.39
2019-04-03T11:55:02.789Z,999.39
2019-04-03T11:56:02.567Z,999.39
2019-04-03T11:57:02.145Z,999.39
2019-04-03T11:58:02.490Z,999.36
2019-04-03T11:59:02.286Z,999.36
2019-04-03T12:00:05.634Z,999.36
2019-04-03T12:01:02.441Z,999.36
2019-04-03T12:02:02.867Z,999.35
2019-04-03T12:03:01.798Z,999.35
2019-04-03T12:04:02.119Z,999.35
2019-04-03T12:05:02.619Z,999.35
2019-04-03T12:06:02.685Z,999.51
2019-04-03T12:07:02.056Z,999.51
2019-04-03T12:08:01.955Z,999.51
2019-04-03T12:09:02.782Z,999.51
2019-04-03T12:10:04.895Z,999.66
2019-04-03T12:11:07.040Z,999.66
2019-04-03T12:12:01.828Z,999.66
2019-04-03T12:13:04.884Z,999.66
2019-04-03T12:14:02.161Z,999.42
2019-04-03T12:15:02.552Z,999.42
2019-04-03T12:16:02.511Z,999.42
2019-04-03T12:17:01.726Z,999.42
2019-04-03T12:18:03.125Z,999.42
2019-04-03T12:19:05.887Z,999.42
2019-04-03T12:20:02.571Z,999.42
2019-04-03T12:21:02.574Z,999.42
2019-04-03T12:22:02.245Z,999.54
2019-04-03T12:23:02.076Z,999.54
2019-04-03T12:24:02.737Z,999.54
2019-04-03T12:25:03.033Z,999.54
2019-04-03T12:26:01.761Z,999.47
2019-04-03T12:27:02.370Z,999.47